sensor_id;sensor_type;location;lat;lon;timestamp;pressure;altitude;pressure_sealevel;temperature;humidity
54882;BME280;40775;51.448;4.742;2024-01-16T00:02:05;101010.50;;;2.57;100.00
54882;BME280;40775;51.448;4.742;2024-01-16T00:04:37;101018.34;;;2.59;100.00
54882;BME280;40775;51.448;4.742;2024-01-16T00:07:04;101028.81;;;2.60;100.00
54882;BME280;40775;51.448;4.742;2024-01-16T00:09:35;101026.28;;;2.62;100.00
54882;BME280;40775;51.448;4.742;2024-01-16T00:12:05;101025.88;;;2.54;100.00
54882;BME280;40775;51.448;4.742;2024-01-16T00:14:36;101034.97;;;2.62;100.00
54882;BME280;40775;51.448;4.742;2024-01-16T00:17:04;101028.00;;;2.61;100.00
54882;BME280;40775;51.448;4.742;2024-01-16T00:19:32;101025.25;;;2.58;100.00
54882;BME280;40775;51.448;4.742;2024-01-16T00:21:59;101028.72;;;2.59;100.00
54882;BME280;40775;51.448;4.742;2024-01-16T00:24:27;101030.09;;;2.52;100.00
54882;BME280;40775;51.448;4.742;2024-01-16T00:26:54;101030.41;;;2.58;100.00
54882;BME280;40775;51.448;4.742;2024-01-16T00:29:21;101033.75;;;2.56;100.00
54882;BME280;40775;51.448;4.742;2024-01-16T00:31:48;101033.66;;;2.54;100.00
54882;BME280;40775;51.448;4.742;2024-01-16T00:34:16;101034.63;;;2.56;100.00
54882;BME280;40775;51.448;4.742;2024-01-16T00:36:43;101044.91;;;2.55;100.00
54882;BME280;40775;51.448;4.742;2024-01-16T00:39:10;101044.81;;;2.53;100.00
54882;BME280;40775;51.448;4.742;2024-01-16T00:41:37;101042.16;;;2.52;100.00
54882;BME280;40775;51.448;4.742;2024-01-16T00:44:04;101039.72;;;2.55;100.00
54882;BME280;40775;51.448;4.742;2024-01-16T00:46:31;101046.69;;;2.56;100.00
54882;BME280;40775;51.448;4.742;2024-01-16T00:48:58;101043.53;;;2.61;100.00
54882;BME280;40775;51.448;4.742;2024-01-16T00:51:26;101048.47;;;2.57;100.00
54882;BME280;40775;51.448;4.742;2024-01-16T00:53:53;101040.88;;;2.60;100.00
54882;BME280;40775;51.448;4.742;2024-01-16T00:56:20;101047.91;;;2.62;100.00
54882;BME280;40775;51.448;4.742;2024-01-16T00:58:47;101048.72;;;2.61;100.00
54882;BME280;40775;51.448;4.742;2024-01-16T01:01:14;101039.16;;;2.60;100.00
54882;BME280;40775;51.448;4.742;2024-01-16T01:03:41;101050.34;;;2.59;100.00
54882;BME280;40775;51.448;4.742;2024-01-16T01:06:08;101041.75;;;2.60;100.00
54882;BME280;40775;51.448;4.742;2024-01-16T01:08:35;101046.94;;;2.60;100.00
54882;BME280;40775;51.448;4.742;2024-01-16T01:11:02;101040.94;;;2.61;100.00
54882;BME280;40775;51.448;4.742;2024-01-16T01:13:30;101040.16;;;2.62;100.00
54882;BME280;40775;51.448;4.742;2024-01-16T01:15:57;101033.91;;;2.59;100.00
54882;BME280;40775;51.448;4.742;2024-01-16T01:18:24;101028.16;;;2.64;100.00
54882;BME280;40775;51.448;4.742;2024-01-16T01:20:51;101027.84;;;2.58;100.00
54882;BME280;40775;51.448;4.742;2024-01-16T01:23:18;101029.69;;;2.61;100.00
54882;BME280;40775;51.448;4.742;2024-01-16T01:25:45;101037.31;;;2.58;100.00
54882;BME280;40775;51.448;4.742;2024-01-16T01:28:12;101043.28;;;2.57;100.00
54882;BME280;40775;51.448;4.742;2024-01-16T01:30:39;101036.56;;;2.60;100.00
54882;BME280;40775;51.448;4.742;2024-01-16T01:33:07;101040.69;;;2.57;100.00
54882;BME280;40775;51.448;4.742;2024-01-16T01:35:34;101037.22;;;2.56;100.00
54882;BME280;40775;51.448;4.742;2024-01-16T01:38:01;101047.41;;;2.53;100.00
54882;BME280;40775;51.448;4.742;2024-01-16T01:40:28;101049.19;;;2.54;100.00
54882;BME280;40775;51.448;4.742;2024-01-16T01:42:55;101051.06;;;2.57;100.00
54882;BME280;40775;51.448;4.742;2024-01-16T01:45:22;101053.25;;;2.49;100.00
54882;BME280;40775;51.448;4.742;2024-01-16T01:47:49;101041.91;;;2.47;100.00
54882;BME280;40775;51.448;4.742;2024-01-16T01:50:17;101050.19;;;2.56;100.00
54882;BME280;40775;51.448;4.742;2024-01-16T01:52:45;101052.53;;;2.52;100.00
54882;BME280;40775;51.448;4.742;2024-01-16T01:55:13;101043.94;;;2.53;100.00
54882;BME280;40775;51.448;4.742;2024-01-16T01:57:41;101055.75;;;2.47;100.00
54882;BME280;40775;51.448;4.742;2024-01-16T02:00:11;101050.00;;;2.53;100.00
54882;BME280;40775;51.448;4.742;2024-01-16T02:02:40;101039.66;;;2.53;100.00
54882;BME280;40775;51.448;4.742;2024-01-16T02:05:08;101037.88;;;2.52;100.00
54882;BME280;40775;51.448;4.742;2024-01-16T02:07:36;101036.81;;;2.48;100.00
54882;BME280;40775;51.448;4.742;2024-01-16T02:10:04;101037.97;;;2.39;100.00
54882;BME280;40775;51.448;4.742;2024-01-16T02:12:31;101034.28;;;2.50;100.00
54882;BME280;40775;51.448;4.742;2024-01-16T02:14:58;101027.13;;;2.46;100.00
54882;BME280;40775;51.448;4.742;2024-01-16T02:17:25;101027.69;;;2.40;100.00
54882;BME280;40775;51.448;4.742;2024-01-16T02:19:52;101031.25;;;2.42;100.00
54882;BME280;40775;51.448;4.742;2024-01-16T02:22:20;101027.78;;;2.42;100.00
54882;BME280;40775;51.448;4.742;2024-01-16T02:24:50;101025.34;;;2.45;100.00
54882;BME280;40775;51.448;4.742;2024-01-16T02:27:17;101025.91;;;2.39;100.00
54882;BME280;40775;51.448;4.742;2024-01-16T02:29:44;101020.09;;;2.43;100.00
54882;BME280;40775;51.448;4.742;2024-01-16T02:32:12;101019.13;;;2.41;100.00
54882;BME280;40775;51.448;4.742;2024-01-16T02:34:40;101015.53;;;2.39;100.00
54882;BME280;40775;51.448;4.742;2024-01-16T02:37:08;101010.53;;;2.42;100.00
54882;BME280;40775;51.448;4.742;2024-01-16T02:39:35;101001.53;;;2.36;100.00
54882;BME280;40775;51.448;4.742;2024-01-16T02:42:03;101000.72;;;2.37;100.00
54882;BME280;40775;51.448;4.742;2024-01-16T02:44:30;101003.56;;;2.41;100.00
54882;BME280;40775;51.448;4.742;2024-01-16T02:46:57;101010.28;;;2.38;100.00
54882;BME280;40775;51.448;4.742;2024-01-16T02:49:24;101007.59;;;2.36;100.00
54882;BME280;40775;51.448;4.742;2024-01-16T02:51:53;101011.09;;;2.37;100.00
54882;BME280;40775;51.448;4.742;2024-01-16T02:54:22;101014.41;;;2.34;100.00
54882;BME280;40775;51.448;4.742;2024-01-16T02:56:49;101019.84;;;2.39;100.00
54882;BME280;40775;51.448;4.742;2024-01-16T02:59:16;101016.09;;;2.34;100.00
54882;BME280;40775;51.448;4.742;2024-01-16T03:01:44;101013.50;;;2.34;100.00
54882;BME280;40775;51.448;4.742;2024-01-16T03:04:11;101023.22;;;2.38;100.00
54882;BME280;40775;51.448;4.742;2024-01-16T03:06:38;101023.06;;;2.35;100.00
54882;BME280;40775;51.448;4.742;2024-01-16T03:09:06;101015.22;;;2.33;100.00
54882;BME280;40775;51.448;4.742;2024-01-16T03:11:33;101016.91;;;2.33;100.00
54882;BME280;40775;51.448;4.742;2024-01-16T03:14:00;101009.94;;;2.32;100.00
54882;BME280;40775;51.448;4.742;2024-01-16T03:16:28;101013.44;;;2.32;100.00
54882;BME280;40775;51.448;4.742;2024-01-16T03:18:55;101009.78;;;2.29;100.00
54882;BME280;40775;51.448;4.742;2024-01-16T03:21:22;101006.47;;;2.31;100.00
54882;BME280;40775;51.448;4.742;2024-01-16T03:23:50;101015.03;;;2.30;100.00
54882;BME280;40775;51.448;4.742;2024-01-16T03:26:17;101007.84;;;2.25;100.00
54882;BME280;40775;51.448;4.742;2024-01-16T03:28:45;101014.88;;;2.27;100.00
54882;BME280;40775;51.448;4.742;2024-01-16T03:31:13;100997.63;;;2.28;100.00
54882;BME280;40775;51.448;4.742;2024-01-16T03:33:41;100997.63;;;2.28;100.00
54882;BME280;40775;51.448;4.742;2024-01-16T03:36:10;100993.25;;;2.27;100.00
54882;BME280;40775;51.448;4.742;2024-01-16T03:38:42;101000.94;;;2.25;100.00
54882;BME280;40775;51.448;4.742;2024-01-16T03:41:11;101005.31;;;2.26;100.00
54882;BME280;40775;51.448;4.742;2024-01-16T03:43:39;100999.25;;;2.26;100.00
54882;BME280;40775;51.448;4.742;2024-01-16T03:46:06;100984.34;;;2.22;100.00
54882;BME280;40775;51.448;4.742;2024-01-16T03:48:34;100987.84;;;2.22;100.00
54882;BME280;40775;51.448;4.742;2024-01-16T03:51:01;100983.47;;;2.21;100.00
54882;BME280;40775;51.448;4.742;2024-01-16T03:53:29;100978.19;;;2.20;100.00
54882;BME280;40775;51.448;4.742;2024-01-16T03:55:56;100974.09;;;2.23;100.00
54882;BME280;40775;51.448;4.742;2024-01-16T03:58:24;100978.44;;;2.24;100.00
54882;BME280;40775;51.448;4.742;2024-01-16T04:00:51;100979.78;;;2.17;100.00
54882;BME280;40775;51.448;4.742;2024-01-16T04:03:20;100972.00;;;2.17;100.00
54882;BME280;40775;51.448;4.742;2024-01-16T04:05:47;100964.00;;;2.13;100.00
54882;BME280;40775;51.448;4.742;2024-01-16T04:08:15;100964.88;;;2.13;100.00
54882;BME280;40775;51.448;4.742;2024-01-16T04:10:42;100960.69;;;2.15;100.00
54882;BME280;40775;51.448;4.742;2024-01-16T04:13:09;100959.69;;;2.13;100.00
54882;BME280;40775;51.448;4.742;2024-01-16T04:15:39;100959.53;;;2.10;100.00
54882;BME280;40775;51.448;4.742;2024-01-16T04:18:07;100954.53;;;2.13;100.00
54882;BME280;40775;51.448;4.742;2024-01-16T04:20:34;100950.78;;;2.08;100.00
54882;BME280;40775;51.448;4.742;2024-01-16T04:23:02;100947.47;;;2.11;100.00
54882;BME280;40775;51.448;4.742;2024-01-16T04:25:29;100944.81;;;2.09;100.00
54882;BME280;40775;51.448;4.742;2024-01-16T04:27:57;100946.44;;;2.07;100.00
54882;BME280;40775;51.448;4.742;2024-01-16T04:30:28;100948.13;;;2.07;100.00
54882;BME280;40775;51.448;4.742;2024-01-16T04:32:55;100944.72;;;2.08;100.00
54882;BME280;40775;51.448;4.742;2024-01-16T04:35:22;100953.56;;;2.11;100.00
54882;BME280;40775;51.448;4.742;2024-01-16T04:37:49;100952.56;;;2.09;100.00
54882;BME280;40775;51.448;4.742;2024-01-16T04:40:16;100947.22;;;2.06;100.00
54882;BME280;40775;51.448;4.742;2024-01-16T04:42:43;100948.94;;;2.06;100.00
54882;BME280;40775;51.448;4.742;2024-01-16T04:45:10;100957.41;;;2.03;100.00
54882;BME280;40775;51.448;4.742;2024-01-16T04:47:37;100958.47;;;2.07;100.00
54882;BME280;40775;51.448;4.742;2024-01-16T04:50:05;100948.84;;;2.04;100.00
54882;BME280;40775;51.448;4.742;2024-01-16T04:52:32;100953.06;;;2.02;100.00
54882;BME280;40775;51.448;4.742;2024-01-16T04:54:59;100947.47;;;2.11;100.00
54882;BME280;40775;51.448;4.742;2024-01-16T04:57:26;100946.50;;;2.09;100.00
54882;BME280;40775;51.448;4.742;2024-01-16T04:59:53;100948.94;;;2.06;100.00
54882;BME280;40775;51.448;4.742;2024-01-16T05:02:20;100949.09;;;2.09;100.00
54882;BME280;40775;51.448;4.742;2024-01-16T05:04:48;100938.91;;;2.12;100.00
54882;BME280;40775;51.448;4.742;2024-01-16T05:07:16;100953.06;;;2.02;100.00
54882;BME280;40775;51.448;4.742;2024-01-16T05:09:44;100946.25;;;2.04;100.00
54882;BME280;40775;51.448;4.742;2024-01-16T05:12:12;100941.81;;;2.02;100.00
54882;BME280;40775;51.448;4.742;2024-01-16T05:14:40;100942.78;;;2.04;100.00
54882;BME280;40775;51.448;4.742;2024-01-16T05:17:07;100927.25;;;2.04;100.00
54882;BME280;40775;51.448;4.742;2024-01-16T05:19:35;100936.72;;;2.03;100.00
54882;BME280;40775;51.448;4.742;2024-01-16T05:22:02;100928.84;;;2.02;100.00
54882;BME280;40775;51.448;4.742;2024-01-16T05:24:29;100931.13;;;1.96;100.00
54882;BME280;40775;51.448;4.742;2024-01-16T05:26:56;100932.25;;;2.01;100.00
54882;BME280;40775;51.448;4.742;2024-01-16T05:29:24;100937.34;;;1.99;100.00
54882;BME280;40775;51.448;4.742;2024-01-16T05:31:51;100936.63;;;2.02;100.00
54882;BME280;40775;51.448;4.742;2024-01-16T05:34:18;100931.38;;;2.00;100.00
54882;BME280;40775;51.448;4.742;2024-01-16T05:36:45;100932.34;;;2.02;100.00
54882;BME280;40775;51.448;4.742;2024-01-16T05:39:12;100927.97;;;2.01;100.00
54882;BME280;40775;51.448;4.742;2024-01-16T05:41:39;100929.91;;;2.05;100.00
54882;BME280;40775;51.448;4.742;2024-01-16T05:44:07;100921.91;;;2.01;100.00
54882;BME280;40775;51.448;4.742;2024-01-16T05:46:34;100919.78;;;1.94;100.00
54882;BME280;40775;51.448;4.742;2024-01-16T05:49:01;100915.84;;;2.00;100.00
54882;BME280;40775;51.448;4.742;2024-01-16T05:51:29;100920.13;;;2.00;100.00
54882;BME280;40775;51.448;4.742;2024-01-16T05:53:57;100922.47;;;1.95;100.00
54882;BME280;40775;51.448;4.742;2024-01-16T05:56:24;100923.19;;;1.93;100.00
54882;BME280;40775;51.448;4.742;2024-01-16T05:58:51;100923.19;;;1.93;100.00
54882;BME280;40775;51.448;4.742;2024-01-16T06:01:19;100919.16;;;1.98;100.00
54882;BME280;40775;51.448;4.742;2024-01-16T06:03:46;100918.91;;;1.93;100.00
54882;BME280;40775;51.448;4.742;2024-01-16T06:06:16;100909.16;;;1.89;100.00
54882;BME280;40775;51.448;4.742;2024-01-16T06:08:43;100915.94;;;1.87;100.00
54882;BME280;40775;51.448;4.742;2024-01-16T06:11:11;100922.81;;;1.86;100.00
54882;BME280;40775;51.448;4.742;2024-01-16T06:13:41;100914.78;;;1.82;100.00
54882;BME280;40775;51.448;4.742;2024-01-16T06:16:08;100910.50;;;1.82;100.00
54882;BME280;40775;51.448;4.742;2024-01-16T06:18:35;100907.84;;;1.81;100.00
54882;BME280;40775;51.448;4.742;2024-01-16T06:21:03;100901.94;;;1.83;100.00
54882;BME280;40775;51.448;4.742;2024-01-16T06:23:31;100908.00;;;1.84;100.00
54882;BME280;40775;51.448;4.742;2024-01-16T06:26:00;100914.16;;;1.86;100.00
54882;BME280;40775;51.448;4.742;2024-01-16T06:28:27;100914.97;;;1.85;100.00
54882;BME280;40775;51.448;4.742;2024-01-16T06:30:54;100912.38;;;1.85;100.00
54882;BME280;40775;51.448;4.742;2024-01-16T06:33:21;100905.16;;;1.79;100.00
54882;BME280;40775;51.448;4.742;2024-01-16T06:35:48;100911.06;;;1.77;100.00
54882;BME280;40775;51.448;4.742;2024-01-16T06:38:20;100913.72;;;1.78;100.00
54882;BME280;40775;51.448;4.742;2024-01-16T06:40:47;100914.47;;;1.76;100.00
54882;BME280;40775;51.448;4.742;2024-01-16T06:43:15;100912.75;;;1.76;100.00
54882;BME280;40775;51.448;4.742;2024-01-16T06:45:43;100924.81;;;3.03;100.00
54882;BME280;40775;51.448;4.742;2024-01-16T06:48:10;100929.25;;;5.86;100.00
54882;BME280;40775;51.448;4.742;2024-01-16T06:50:38;100929.53;;;7.31;100.00
54882;BME280;40775;51.448;4.742;2024-01-16T06:53:05;100923.75;;;8.20;100.00
54882;BME280;40775;51.448;4.742;2024-01-16T06:55:32;100909.66;;;8.72;100.00
54882;BME280;40775;51.448;4.742;2024-01-16T06:57:59;100911.63;;;9.11;100.00
54882;BME280;40775;51.448;4.742;2024-01-16T07:00:26;100903.72;;;9.42;100.00
54882;BME280;40775;51.448;4.742;2024-01-16T07:02:54;100898.25;;;9.68;100.00
54882;BME280;40775;51.448;4.742;2024-01-16T07:05:23;100902.16;;;9.85;100.00
54882;BME280;40775;51.448;4.742;2024-01-16T07:07:50;100900.84;;;10.02;100.00
54882;BME280;40775;51.448;4.742;2024-01-16T07:10:17;100896.81;;;10.16;100.00
54882;BME280;40775;51.448;4.742;2024-01-16T07:12:49;100894.47;;;10.29;100.00
54882;BME280;40775;51.448;4.742;2024-01-16T07:15:18;100900.84;;;10.40;100.00
54882;BME280;40775;51.448;4.742;2024-01-16T07:17:45;100889.66;;;10.47;100.00
54882;BME280;40775;51.448;4.742;2024-01-16T07:20:13;100902.03;;;10.54;100.00
54882;BME280;40775;51.448;4.742;2024-01-16T07:22:40;100897.84;;;10.64;100.00
54882;BME280;40775;51.448;4.742;2024-01-16T07:25:08;100898.03;;;10.71;100.00
54882;BME280;40775;51.448;4.742;2024-01-16T07:27:35;100889.41;;;10.77;100.00
54882;BME280;40775;51.448;4.742;2024-01-16T07:30:05;100889.44;;;10.78;100.00
54882;BME280;40775;51.448;4.742;2024-01-16T07:32:33;100890.44;;;10.87;100.00
54882;BME280;40775;51.448;4.742;2024-01-16T07:35:02;100894.91;;;10.91;100.00
54882;BME280;40775;51.448;4.742;2024-01-16T07:37:30;100898.53;;;10.96;100.00
54882;BME280;40775;51.448;4.742;2024-01-16T07:39:57;100898.63;;;11.00;100.00
54882;BME280;40775;51.448;4.742;2024-01-16T07:42:24;100893.44;;;11.05;100.00
54882;BME280;40775;51.448;4.742;2024-01-16T07:44:52;100895.31;;;11.10;100.00
54882;BME280;40775;51.448;4.742;2024-01-16T07:47:19;100897.97;;;11.13;100.00
54882;BME280;40775;51.448;4.742;2024-01-16T07:49:47;100900.72;;;11.20;100.00
54882;BME280;40775;51.448;4.742;2024-01-16T07:52:14;100899.94;;;11.24;100.00
54882;BME280;40775;51.448;4.742;2024-01-16T07:54:42;100905.31;;;11.31;100.00
54882;BME280;40775;51.448;4.742;2024-01-16T07:57:09;100908.91;;;11.35;100.00
54882;BME280;40775;51.448;4.742;2024-01-16T07:59:37;100906.38;;;11.41;100.00
54882;BME280;40775;51.448;4.742;2024-01-16T08:02:05;100909.97;;;11.46;100.00
54882;BME280;40775;51.448;4.742;2024-01-16T08:04:32;100906.53;;;11.50;100.00
54882;BME280;40775;51.448;4.742;2024-01-16T08:06:59;100904.00;;;11.55;100.00
54882;BME280;40775;51.448;4.742;2024-01-16T08:09:27;100900.56;;;11.59;100.00
54882;BME280;40775;51.448;4.742;2024-01-16T08:11:54;100912.84;;;11.60;100.00
54882;BME280;40775;51.448;4.742;2024-01-16T08:14:21;100912.03;;;11.64;100.00
54882;BME280;40775;51.448;4.742;2024-01-16T08:16:48;100916.47;;;11.68;100.00
54882;BME280;40775;51.448;4.742;2024-01-16T08:19:15;100922.66;;;11.71;100.00
54882;BME280;40775;51.448;4.742;2024-01-16T08:21:43;100916.56;;;11.74;100.00
54882;BME280;40775;51.448;4.742;2024-01-16T08:24:10;100922.75;;;11.76;100.00
54882;BME280;40775;51.448;4.742;2024-01-16T08:26:37;100928.16;;;11.81;100.00
54882;BME280;40775;51.448;4.742;2024-01-16T08:29:04;100937.81;;;11.83;100.00
54882;BME280;40775;51.448;4.742;2024-01-16T08:31:32;100928.16;;;11.82;100.00
54882;BME280;40775;51.448;4.742;2024-01-16T08:33:59;100938.75;;;11.85;100.00
54882;BME280;40775;51.448;4.742;2024-01-16T08:36:26;100931.69;;;11.83;100.00
54882;BME280;40775;51.448;4.742;2024-01-16T08:38:54;100936.09;;;11.85;100.00
54882;BME280;40775;51.448;4.742;2024-01-16T08:41:22;100937.03;;;11.89;100.00
54882;BME280;40775;51.448;4.742;2024-01-16T08:43:49;100945.78;;;11.88;100.00
54882;BME280;40775;51.448;4.742;2024-01-16T08:46:17;100935.31;;;11.91;100.00
54882;BME280;40775;51.448;4.742;2024-01-16T08:48:46;100944.13;;;11.94;100.00
54882;BME280;40775;51.448;4.742;2024-01-16T08:51:13;100934.47;;;11.93;100.00
54882;BME280;40775;51.448;4.742;2024-01-16T08:53:41;100943.31;;;11.98;100.00
54882;BME280;40775;51.448;4.742;2024-01-16T08:56:09;100943.31;;;11.98;100.00
54882;BME280;40775;51.448;4.742;2024-01-16T08:58:38;100952.13;;;12.00;100.00
54882;BME280;40775;51.448;4.742;2024-01-16T09:01:07;100948.59;;;12.00;100.00
54882;BME280;40775;51.448;4.742;2024-01-16T09:03:35;100946.84;;;12.00;100.00
54882;BME280;40775;51.448;4.742;2024-01-16T09:06:02;100931.13;;;12.03;100.00
54882;BME280;40775;51.448;4.742;2024-01-16T09:08:30;100910.94;;;12.04;100.00
54882;BME280;40775;51.448;4.742;2024-01-16T09:10:57;100918.78;;;11.99;100.00
54882;BME280;40775;51.448;4.742;2024-01-16T09:13:24;100920.63;;;12.05;100.00
54882;BME280;40775;51.448;4.742;2024-01-16T09:15:51;100919.81;;;12.09;100.00
54882;BME280;40775;51.448;4.742;2024-01-16T09:18:18;100925.16;;;12.14;100.00
54882;BME280;40775;51.448;4.742;2024-01-16T09:20:46;100919.13;;;12.21;100.00
54882;BME280;40775;51.448;4.742;2024-01-16T09:23:13;100926.09;;;12.17;100.00
54882;BME280;40775;51.448;4.742;2024-01-16T09:25:41;100932.28;;;12.22;100.00
54882;BME280;40775;51.448;4.742;2024-01-16T09:28:11;100927.09;;;12.27;100.00
54882;BME280;40775;51.448;4.742;2024-01-16T09:30:38;100922.66;;;12.24;100.00
54882;BME280;40775;51.448;4.742;2024-01-16T09:33:06;100928.84;;;12.26;100.00
54882;BME280;40775;51.448;4.742;2024-01-16T09:35:34;100923.56;;;12.25;100.00
54882;BME280;40775;51.448;4.742;2024-01-16T09:38:02;100921.78;;;12.24;100.00
54882;BME280;40775;51.448;4.742;2024-01-16T09:40:30;100919.16;;;12.24;100.00
54882;BME280;40775;51.448;4.742;2024-01-16T09:42:57;100918.28;;;12.25;100.00
54882;BME280;40775;51.448;4.742;2024-01-16T09:45:25;100928.84;;;12.28;100.00
54882;BME280;40775;51.448;4.742;2024-01-16T09:47:54;100926.19;;;12.25;100.00
54882;BME280;40775;51.448;4.742;2024-01-16T09:50:22;100919.22;;;12.28;100.00
54882;BME280;40775;51.448;4.742;2024-01-16T09:52:50;100912.19;;;12.27;100.00
54882;BME280;40775;51.448;4.742;2024-01-16T09:55:17;100913.06;;;12.26;100.00
54882;BME280;40775;51.448;4.742;2024-01-16T09:57:45;100922.72;;;12.29;100.00
54882;BME280;40775;51.448;4.742;2024-01-16T10:00:13;100923.56;;;12.26;100.00
54882;BME280;40775;51.448;4.742;2024-01-16T10:02:42;100926.19;;;12.25;100.00
54882;BME280;40775;51.448;4.742;2024-01-16T10:05:11;100925.38;;;12.29;100.00
54882;BME280;40775;51.448;4.742;2024-01-16T10:07:41;100919.16;;;12.24;100.00
54882;BME280;40775;51.448;4.742;2024-01-16T10:10:11;100920.09;;;12.27;100.00
54882;BME280;40775;51.448;4.742;2024-01-16T10:12:40;100920.97;;;12.28;100.00
54882;BME280;40775;51.448;4.742;2024-01-16T10:15:08;100917.47;;;12.29;100.00
54882;BME280;40775;51.448;4.742;2024-01-16T10:17:41;100914.81;;;12.27;100.00
54882;BME280;40775;51.448;4.742;2024-01-16T10:20:11;100913.88;;;12.24;100.00
54882;BME280;40775;51.448;4.742;2024-01-16T10:22:53;100900.78;;;12.27;100.00
54882;BME280;40775;51.448;4.742;2024-01-16T10:25:21;100906.00;;;12.24;100.00
54882;BME280;40775;51.448;4.742;2024-01-16T10:27:49;100903.38;;;12.24;100.00
54882;BME280;40775;51.448;4.742;2024-01-16T10:30:30;100908.66;;;12.27;100.00
54882;BME280;40775;51.448;4.742;2024-01-16T10:33:13;100908.63;;;12.24;100.00
54882;BME280;40775;51.448;4.742;2024-01-16T10:35:44;100906.00;;;12.24;100.00
54882;BME280;40775;51.448;4.742;2024-01-16T10:38:20;100899.00;;;12.26;100.00
54882;BME280;40775;51.448;4.742;2024-01-16T10:41:05;100892.84;;;12.24;100.00
54882;BME280;40775;51.448;4.742;2024-01-16T10:43:33;100897.25;;;12.26;100.00
54882;BME280;40775;51.448;4.742;2024-01-16T10:46:17;100891.91;;;12.20;100.00
54882;BME280;40775;51.448;4.742;2024-01-16T10:49:04;100883.16;;;12.23;100.00
54882;BME280;40775;51.448;4.742;2024-01-16T10:51:32;100889.34;;;12.26;100.00
54882;BME280;40775;51.448;4.742;2024-01-16T10:54:04;100884.06;;;12.25;100.00
54882;BME280;40775;51.448;4.742;2024-01-16T10:56:32;100868.31;;;12.28;100.00
54882;BME280;40775;51.448;4.742;2024-01-16T10:59:25;100856.03;;;12.28;100.00
54882;BME280;40775;51.448;4.742;2024-01-16T11:01:56;100854.28;;;12.27;100.00
54882;BME280;40775;51.448;4.742;2024-01-16T11:04:25;100863.06;;;12.29;100.00
54882;BME280;40775;51.448;4.742;2024-01-16T11:06:54;100863.97;;;12.31;100.00
54882;BME280;40775;51.448;4.742;2024-01-16T11:09:22;100862.22;;;12.30;100.00
54882;BME280;40775;51.448;4.742;2024-01-16T11:11:50;100857.00;;;12.33;100.00
54882;BME280;40775;51.448;4.742;2024-01-16T11:14:18;100858.69;;;12.30;100.00
54882;BME280;40775;51.448;4.742;2024-01-16T11:16:50;100856.06;;;12.30;100.00
54882;BME280;40775;51.448;4.742;2024-01-16T11:19:18;100860.47;;;12.32;100.00
54882;BME280;40775;51.448;4.742;2024-01-16T11:22:06;100864.97;;;12.38;100.00
54882;BME280;40775;51.448;4.742;2024-01-16T11:24:34;100858.84;;;12.39;100.00
54882;BME280;40775;51.448;4.742;2024-01-16T11:27:01;100853.53;;;12.36;100.00
54882;BME280;40775;51.448;4.742;2024-01-16T11:31:57;100862.38;;;12.41;100.00
54882;BME280;40775;51.448;4.742;2024-01-16T11:37:14;100863.25;;;12.40;100.00
54882;BME280;40775;51.448;4.742;2024-01-16T11:39:42;100858.84;;;12.39;100.00
54882;BME280;40775;51.448;4.742;2024-01-16T11:42:09;100863.25;;;12.40;100.00
54882;BME280;40775;51.448;4.742;2024-01-16T11:44:56;100863.25;;;12.40;100.00
54882;BME280;40775;51.448;4.742;2024-01-16T11:47:24;100857.94;;;12.37;100.00
54882;BME280;40775;51.448;4.742;2024-01-16T11:50:11;100859.72;;;12.38;100.00
54882;BME280;40775;51.448;4.742;2024-01-16T11:52:44;100854.47;;;12.40;100.00
54882;BME280;40775;51.448;4.742;2024-01-16T11:58:27;100838.69;;;12.43;100.00
54882;BME280;40775;51.448;4.742;2024-01-16T12:00:58;100844.81;;;12.42;100.00
54882;BME280;40775;51.448;4.742;2024-01-16T12:03:25;100844.88;;;12.46;100.00
54882;BME280;40775;51.448;4.742;2024-01-16T12:06:01;100834.34;;;12.45;100.00
54882;BME280;40775;51.448;4.742;2024-01-16T12:08:30;100838.72;;;12.44;100.00
54882;BME280;40775;51.448;4.742;2024-01-16T12:10:57;100835.25;;;12.50;100.00
54882;BME280;40775;51.448;4.742;2024-01-16T12:13:26;100818.56;;;12.48;100.00
54882;BME280;40775;51.448;4.742;2024-01-16T12:16:03;100820.31;;;12.47;100.00
54882;BME280;40775;51.448;4.742;2024-01-16T12:18:32;100812.44;;;12.49;100.00
54882;BME280;40775;51.448;4.742;2024-01-16T12:21:13;100814.19;;;12.48;100.00
54882;BME280;40775;51.448;4.742;2024-01-16T12:23:42;100814.16;;;12.45;100.00
54882;BME280;40775;51.448;4.742;2024-01-16T12:26:24;100808.88;;;12.45;100.00
54882;BME280;40775;51.448;4.742;2024-01-16T12:28:54;100805.34;;;12.43;100.00
54882;BME280;40775;51.448;4.742;2024-01-16T12:31:27;100809.78;;;12.47;100.00
54882;BME280;40775;51.448;4.742;2024-01-16T12:34:10;100804.53;;;12.47;100.00
54882;BME280;40775;51.448;4.742;2024-01-16T12:36:38;100808.88;;;12.45;100.00
54882;BME280;40775;51.448;4.742;2024-01-16T12:39:05;100802.75;;;12.45;100.00
54882;BME280;40775;51.448;4.742;2024-01-16T12:41:37;100793.09;;;12.47;100.00
54882;BME280;40775;51.448;4.742;2024-01-16T12:44:10;100795.78;;;12.50;100.00
54882;BME280;40775;51.448;4.742;2024-01-16T12:46:56;100796.63;;;12.47;100.00
54882;BME280;40775;51.448;4.742;2024-01-16T12:49:24;100787.00;;;12.51;100.00
54882;BME280;40775;51.448;4.742;2024-01-16T12:51:52;100787.81;;;12.45;100.00
54882;BME280;40775;51.448;4.742;2024-01-16T12:54:39;100793.91;;;12.40;100.00
54882;BME280;40775;51.448;4.742;2024-01-16T12:57:06;100793.97;;;12.44;100.00
54882;BME280;40775;51.448;4.742;2024-01-16T12:59:33;100788.63;;;12.40;100.00
54882;BME280;40775;51.448;4.742;2024-01-16T13:02:00;100786.00;;;12.40;100.00